createdAt,value
2019-05-03T00:01:14.507Z,4.70
2019-05-03T00:03:45.043Z,4.67
2019-05-03T00:06:15.400Z,4.67
2019-05-03T00:08:45.824Z,5.20
2019-05-03T00:11:16.235Z,4.80
2019-05-03T00:13:46.855Z,4.80
2019-05-03T00:16:25.923Z,4.60
2019-05-03T00:18:56.763Z,4.67
2019-05-03T00:21:27.170Z,4.77
2019-05-03T00:23:58.563Z,4.63
2019-05-03T00:26:28.979Z,5.00
2019-05-03T00:28:59.472Z,4.97
2019-05-03T00:31:31.784Z,5.30
2019-05-03T00:34:06.339Z,4.63
2019-05-03T00:36:42.127Z,4.83
2019-05-03T00:39:21.727Z,4.53
2019-05-03T00:41:52.188Z,5.33
2019-05-03T00:44:22.602Z,4.20
2019-05-03T00:46:52.939Z,4.63
2019-05-03T00:49:23.319Z,4.53
2019-05-03T00:51:53.715Z,5.00
2019-05-03T00:54:24.071Z,5.10
2019-05-03T00:56:55.548Z,5.40
2019-05-03T00:59:25.974Z,5.27
2019-05-03T01:01:56.379Z,4.87
2019-05-03T01:04:26.631Z,5.37
2019-05-03T01:06:56.939Z,4.93
2019-05-03T01:09:27.843Z,5.00
2019-05-03T01:11:58.211Z,5.47
2019-05-03T01:14:33.219Z,5.47
2019-05-03T01:17:11.784Z,5.60
2019-05-03T01:19:42.664Z,5.33
2019-05-03T01:22:13.236Z,5.30
2019-05-03T01:24:43.596Z,5.93
2019-05-03T01:27:14.511Z,5.60
2019-05-03T01:29:44.928Z,6.40
2019-05-03T01:32:15.344Z,6.43
2019-05-03T01:34:45.712Z,6.17
2019-05-03T01:37:16.055Z,6.27
2019-05-03T01:39:46.403Z,6.27
2019-05-03T01:42:16.727Z,6.47
2019-05-03T01:44:47.099Z,6.73
2019-05-03T01:47:23.967Z,6.67
2019-05-03T01:52:41.833Z,6.50
2019-05-03T01:55:15.844Z,6.40
2019-05-03T01:57:45.308Z,6.43
2019-05-03T02:00:22.522Z,6.60
2019-05-03T02:03:01.649Z,6.43
2019-05-03T02:05:49.620Z,7.13
2019-05-03T02:08:21.897Z,6.57
2019-05-03T02:10:52.271Z,6.90
2019-05-03T02:13:23.031Z,7.33
2019-05-03T02:15:53.407Z,7.43
2019-05-03T02:18:23.696Z,7.00
2019-05-03T02:20:54.069Z,6.20
2019-05-03T02:23:24.445Z,6.80
2019-05-03T02:25:56.772Z,6.87
2019-05-03T02:28:26.951Z,7.10
2019-05-03T02:30:57.380Z,6.33
2019-05-03T02:33:28.692Z,6.37
2019-05-03T02:35:58.980Z,7.57
2019-05-03T02:38:29.336Z,6.47
2019-05-03T02:41:02.683Z,7.07
2019-05-03T02:43:48.609Z,6.23
2019-05-03T02:46:38.094Z,6.37
2019-05-03T02:49:27.921Z,6.33
2019-05-03T02:51:58.350Z,7.00
2019-05-03T02:54:28.777Z,7.23
2019-05-03T02:56:59.263Z,7.60
2019-05-03T02:59:29.605Z,6.87
2019-05-03T03:02:00.120Z,7.13
2019-05-03T03:04:36.370Z,6.70
2019-05-03T03:07:15.188Z,6.43
2019-05-03T03:09:46.818Z,7.43
2019-05-03T03:12:18.436Z,6.67
2019-05-03T03:14:50.125Z,6.60
2019-05-03T03:17:25.441Z,7.70
2019-05-03T03:19:57.323Z,7.33
2019-05-03T03:22:30.901Z,7.17
2019-05-03T03:25:05.302Z,7.03
2019-05-03T03:27:45.189Z,7.90
2019-05-03T03:30:21.057Z,7.00
2019-05-03T03:32:51.237Z,7.97
2019-05-03T03:35:29.109Z,7.80
2019-05-03T03:37:56.735Z,7.43
2019-05-03T03:40:28.702Z,8.73
2019-05-03T03:43:08.465Z,7.70
2019-05-03T03:45:39.686Z,7.67
2019-05-03T03:48:11.237Z,8.33
2019-05-03T03:50:45.708Z,7.30
2019-05-03T03:53:17.452Z,6.70
2019-05-03T03:55:48.615Z,6.10
2019-05-03T03:58:22.901Z,6.30
2019-05-03T04:00:51.146Z,5.40
2019-05-03T04:03:22.424Z,4.30
2019-05-03T04:05:55.392Z,4.23
2019-05-03T04:08:25.744Z,4.23
2019-05-03T04:10:56.176Z,4.63
2019-05-03T04:13:27.202Z,4.33
2019-05-03T04:16:20.738Z,4.30
2019-05-03T04:19:05.721Z,4.73
2019-05-03T04:21:37.712Z,4.20
2019-05-03T04:24:08.332Z,4.80
2019-05-03T04:26:38.851Z,4.53
2019-05-03T04:29:19.728Z,4.47
2019-05-03T04:31:50.062Z,3.73
2019-05-03T04:34:21.457Z,4.30
2019-05-03T04:36:51.893Z,4.17
2019-05-03T04:39:25.357Z,4.17
2019-05-03T04:41:55.972Z,4.03
2019-05-03T04:44:38.100Z,4.27
2019-05-03T04:49:51.439Z,4.17
2019-05-03T04:52:21.940Z,4.30
2019-05-03T04:54:56.331Z,4.23
2019-05-03T04:57:39.995Z,4.00
2019-05-03T04:59:58.681Z,3.80
2019-05-03T05:02:29.789Z,3.73
2019-05-03T05:05:00.197Z,4.00
2019-05-03T05:07:36.334Z,4.00
2019-05-03T05:10:06.889Z,4.20
2019-05-03T05:12:37.325Z,4.03
2019-05-03T05:15:07.881Z,4.67
2019-05-03T05:17:51.115Z,4.60
2019-05-03T05:20:28.416Z,4.47
2019-05-03T05:22:58.885Z,4.10
2019-05-03T05:25:31.997Z,4.10
2019-05-03T05:28:18.100Z,4.13
2019-05-03T05:30:48.509Z,4.13
2019-05-03T05:33:21.966Z,3.93
2019-05-03T05:35:54.513Z,3.70
2019-05-03T05:38:25.466Z,4.00
2019-05-03T05:40:56.029Z,3.90
2019-05-03T05:43:26.380Z,3.83
2019-05-03T05:45:58.861Z,3.67
2019-05-03T05:48:34.958Z,4.10
2019-05-03T05:51:05.358Z,3.57
2019-05-03T05:53:35.973Z,3.60
2019-05-03T05:56:15.989Z,3.80
2019-05-03T05:58:51.268Z,3.83
2019-05-03T06:01:30.833Z,4.23
2019-05-03T06:04:01.571Z,3.50
2019-05-03T06:06:57.375Z,3.40
2019-05-03T06:09:34.950Z,3.17
2019-05-03T06:12:12.305Z,4.50
2019-05-03T06:14:46.429Z,4.80
2019-05-03T06:17:36.265Z,2.90
2019-05-03T06:20:15.646Z,3.80
2019-05-03T06:22:54.865Z,2.90
2019-05-03T06:25:35.479Z,3.00
2019-05-03T06:28:18.418Z,2.87
2019-05-03T06:30:48.413Z,2.83
2019-05-03T06:33:18.688Z,2.80
2019-05-03T06:35:48.933Z,2.97
2019-05-03T06:38:19.278Z,3.20
2019-05-03T06:40:50.553Z,2.90
2019-05-03T06:43:20.897Z,3.20
2019-05-03T06:45:51.237Z,3.00
2019-05-03T06:48:22.312Z,2.77
2019-05-03T06:50:55.676Z,2.80
2019-05-03T06:53:25.596Z,2.67
2019-05-03T06:55:56.005Z,2.97
2019-05-03T06:58:33.072Z,2.20
2019-05-03T07:01:11.337Z,2.17
2019-05-03T07:04:12.834Z,3.50
2019-05-03T07:06:55.055Z,2.50
2019-05-03T07:09:30.061Z,2.00
2019-05-03T07:12:00.418Z,2.10
2019-05-03T07:14:35.010Z,2.33
2019-05-03T07:17:06.717Z,2.37
2019-05-03T07:19:37.081Z,2.03
2019-05-03T07:22:07.505Z,2.37
2019-05-03T07:24:40.778Z,2.57
2019-05-03T07:27:09.801Z,2.23
2019-05-03T07:29:40.166Z,2.20
2019-05-03T07:32:10.565Z,2.57
2019-05-03T07:34:41.010Z,2.70
2019-05-03T07:37:11.385Z,2.17
2019-05-03T07:39:41.724Z,2.10
2019-05-03T07:42:12.675Z,2.30
2019-05-03T07:44:44.830Z,2.10
2019-05-03T07:47:15.053Z,2.70
2019-05-03T07:49:45.480Z,2.20
2019-05-03T07:52:15.757Z,1.93
2019-05-03T07:54:46.101Z,1.80
2019-05-03T07:57:30.458Z,1.83
2019-05-03T08:02:39.106Z,2.00
2019-05-03T08:05:09.606Z,2.30
2019-05-03T08:07:39.948Z,2.40
2019-05-03T08:10:10.353Z,2.20
2019-05-03T08:12:40.822Z,2.10
2019-05-03T08:15:11.273Z,2.27
2019-05-03T08:17:41.689Z,2.50
2019-05-03T08:20:14.297Z,2.43
2019-05-03T08:22:44.811Z,2.50
2019-05-03T08:25:15.337Z,2.30
2019-05-03T08:27:45.702Z,2.30
2019-05-03T08:30:20.699Z,2.77
2019-05-03T08:33:14.733Z,2.50
2019-05-03T08:35:46.782Z,3.07
2019-05-03T08:38:17.049Z,2.80
2019-05-03T08:40:48.341Z,2.70
2019-05-03T08:43:18.690Z,2.17
2019-05-03T08:45:49.073Z,1.60
2019-05-03T08:48:19.514Z,2.20
2019-05-03T08:50:49.925Z,1.77
2019-05-03T08:53:20.258Z,1.77
2019-05-03T08:55:50.633Z,1.73
2019-05-03T08:58:20.902Z,1.90
2019-05-03T09:00:51.357Z,1.60
2019-05-03T09:03:21.733Z,2.00
2019-05-03T09:05:52.736Z,1.97
2019-05-03T09:08:24.897Z,2.47
2019-05-03T09:11:04.915Z,2.20
2019-05-03T09:14:05.882Z,2.13
2019-05-03T09:16:36.278Z,2.20
2019-05-03T09:19:06.805Z,2.00
2019-05-03T09:21:37.246Z,2.20
2019-05-03T09:24:07.949Z,2.00
2019-05-03T09:26:38.273Z,2.00
2019-05-03T09:29:08.753Z,2.10
2019-05-03T09:31:39.490Z,2.00
2019-05-03T09:34:12.145Z,2.20
2019-05-03T09:36:42.497Z,2.27
2019-05-03T09:39:14.806Z,2.00
2019-05-03T09:41:45.143Z,2.13
2019-05-03T09:44:15.686Z,2.50
2019-05-03T09:46:46.017Z,2.30
2019-05-03T09:49:18.930Z,2.00
2019-05-03T09:51:49.181Z,1.80
2019-05-03T09:54:34.731Z,1.80
2019-05-03T09:57:05.843Z,2.00
2019-05-03T09:59:36.290Z,2.13
2019-05-03T10:02:06.754Z,2.53
2019-05-03T10:04:37.076Z,1.97
2019-05-03T10:07:11.405Z,2.10
2019-05-03T10:09:41.685Z,1.90
2019-05-03T10:12:16.440Z,2.00
2019-05-03T10:14:46.797Z,1.83
2019-05-03T10:17:38.986Z,1.97
2019-05-03T10:20:11.172Z,2.00
2019-05-03T10:22:41.806Z,2.10
2019-05-03T10:25:12.486Z,1.83
2019-05-03T10:27:46.172Z,2.17
2019-05-03T10:30:25.867Z,2.30
2019-05-03T10:33:15.514Z,2.57
2019-05-03T10:35:46.095Z,2.07
2019-05-03T10:38:16.362Z,2.13
2019-05-03T10:40:46.714Z,2.67
2019-05-03T10:43:17.051Z,2.20
2019-05-03T10:45:47.650Z,2.00
2019-05-03T10:48:17.906Z,2.20
2019-05-03T10:50:50.830Z,2.13
2019-05-03T10:53:25.717Z,2.20
2019-05-03T10:56:22.866Z,2.40
2019-05-03T10:58:57.983Z,2.70
2019-05-03T11:01:48.314Z,2.20
2019-05-03T11:04:18.662Z,2.60
2019-05-03T11:06:49.130Z,2.20
2019-05-03T11:09:19.483Z,2.97
2019-05-03T11:11:49.914Z,2.07
2019-05-03T11:14:20.404Z,1.97
2019-05-03T11:16:50.782Z,1.80
2019-05-03T11:19:21.147Z,2.07
2019-05-03T11:21:51.490Z,2.13
2019-05-03T11:24:23.427Z,2.23
2019-05-03T11:26:55.978Z,2.23
2019-05-03T11:29:27.419Z,2.33
2019-05-03T11:32:11.701Z,1.87
2019-05-03T11:34:51.883Z,2.20
2019-05-03T11:37:50.203Z,1.73
2019-05-03T11:40:20.799Z,2.50
2019-05-03T11:42:55.348Z,1.90
2019-05-03T11:45:25.887Z,1.97
2019-05-03T11:47:56.184Z,1.90
2019-05-03T11:50:26.526Z,2.43
2019-05-03T11:52:56.943Z,1.90
2019-05-03T11:55:27.224Z,1.80
2019-05-03T11:57:57.650Z,4.80
2019-05-03T12:00:35.175Z,2.43
2019-05-03T12:03:11.229Z,2.07
2019-05-03T12:05:43.915Z,2.30
2019-05-03T12:08:14.727Z,1.80
2019-05-03T12:10:55.231Z,2.33
2019-05-03T12:13:42.811Z,2.23
2019-05-03T12:16:19.808Z,2.20
2019-05-03T12:18:52.605Z,2.10
2019-05-03T12:21:19.138Z,2.20
2019-05-03T12:23:50.341Z,2.17
2019-05-03T12:26:21.624Z,2.20
2019-05-03T12:28:52.275Z,2.50
2019-05-03T12:31:33.412Z,2.13
2019-05-03T12:33:55.041Z,2.10
2019-05-03T12:36:26.484Z,2.57
2019-05-03T12:38:56.842Z,1.93
2019-05-03T12:41:28.082Z,1.90
2019-05-03T12:43:58.455Z,2.10
2019-05-03T12:46:28.811Z,2.07
2019-05-03T12:48:59.188Z,2.30
2019-05-03T12:51:29.563Z,2.23
2019-05-03T12:53:59.984Z,2.03
2019-05-03T12:56:32.689Z,3.27
2019-05-03T12:59:07.993Z,2.53
2019-05-03T13:02:12.862Z,2.70
2019-05-03T13:04:44.709Z,2.53
2019-05-03T13:07:26.938Z,2.67
2019-05-03T13:09:57.311Z,2.93
2019-05-03T13:12:29.339Z,2.40
2019-05-03T13:14:59.758Z,2.70
2019-05-03T13:17:39.143Z,2.63
2019-05-03T13:20:12.581Z,3.10
2019-05-03T13:22:45.471Z,2.70
2019-05-03T13:25:15.702Z,3.10
2019-05-03T13:27:46.451Z,3.23
2019-05-03T13:30:17.682Z,3.10
2019-05-03T13:32:47.983Z,2.93
2019-05-03T13:35:18.443Z,2.60
2019-05-03T13:37:48.830Z,2.50
2019-05-03T13:40:19.283Z,2.20
2019-05-03T13:42:57.245Z,2.23
2019-05-03T13:45:21.623Z,2.20
2019-05-03T13:47:52.020Z,2.47
2019-05-03T13:50:24.431Z,2.43
2019-05-03T13:52:55.902Z,2.00
2019-05-03T13:55:26.567Z,2.50
2019-05-03T13:57:56.991Z,2.40
2019-05-03T14:00:27.431Z,2.20
2019-05-03T14:02:57.699Z,2.13
2019-05-03T14:05:28.173Z,2.47
2019-05-03T14:07:58.428Z,2.73
2019-05-03T14:10:28.799Z,2.47
2019-05-03T14:12:59.139Z,2.73
2019-05-03T14:15:29.672Z,2.83
2019-05-03T14:18:00.037Z,2.83
2019-05-03T14:20:47.072Z,2.47
2019-05-03T14:23:17.498Z,2.60
2019-05-03T14:25:47.867Z,2.70
2019-05-03T14:28:18.227Z,2.53
2019-05-03T14:30:48.638Z,2.80
2019-05-03T14:33:18.996Z,2.37
2019-05-03T14:35:49.288Z,2.60
2019-05-03T14:38:19.728Z,2.73
2019-05-03T14:40:50.101Z,2.43
2019-05-03T14:43:20.467Z,2.07
2019-05-03T14:45:50.753Z,2.40
2019-05-03T14:48:21.050Z,2.00
2019-05-03T14:50:51.433Z,2.50
2019-05-03T14:53:21.924Z,2.83
2019-05-03T14:56:07.996Z,2.50
2019-05-03T14:59:09.564Z,2.70
2019-05-03T15:01:45.837Z,2.47
2019-05-03T15:04:16.298Z,3.23
2019-05-03T15:06:46.661Z,3.10
2019-05-03T15:09:19.156Z,2.67
2019-05-03T15:11:49.736Z,3.00
2019-05-03T15:14:20.153Z,3.10
2019-05-03T15:16:50.512Z,3.33
2019-05-03T15:19:20.867Z,3.00
2019-05-03T15:21:51.312Z,2.50
2019-05-03T15:24:21.697Z,2.67
2019-05-03T15:26:52.121Z,3.13
2019-05-03T15:29:24.558Z,2.83
2019-05-03T15:31:55.257Z,2.50
2019-05-03T15:34:25.725Z,2.83
2019-05-03T15:36:56.074Z,2.40
2019-05-03T15:39:26.493Z,2.30
2019-05-03T15:41:56.764Z,2.33
2019-05-03T15:44:54.619Z,2.80
2019-05-03T15:47:32.300Z,2.30
2019-05-03T15:50:04.760Z,2.17
2019-05-03T15:52:35.352Z,2.53
2019-05-03T15:55:06.109Z,2.47
2019-05-03T15:57:36.561Z,2.67
2019-05-03T16:00:11.123Z,2.60
2019-05-03T16:02:42.152Z,2.50
2019-05-03T16:05:12.597Z,2.40
2019-05-03T16:07:44.571Z,2.27
2019-05-03T16:10:16.377Z,2.87
2019-05-03T16:12:46.893Z,2.97
2019-05-03T16:15:17.316Z,2.33
2019-05-03T16:17:47.650Z,2.50
2019-05-03T16:20:18.295Z,2.67
2019-05-03T16:22:48.641Z,2.40
2019-05-03T16:25:19.173Z,2.43
2019-05-03T16:27:55.366Z,2.50
2019-05-03T16:30:36.840Z,2.77
2019-05-03T16:33:07.227Z,2.37
2019-05-03T16:35:37.960Z,2.63
2019-05-03T16:38:08.452Z,3.20
2019-05-03T16:40:38.965Z,2.63
2019-05-03T16:43:09.242Z,2.47
2019-05-03T16:45:40.329Z,2.70
2019-05-03T16:48:10.753Z,2.53
2019-05-03T16:50:41.110Z,2.70
2019-05-03T16:53:11.758Z,2.70
2019-05-03T16:55:42.149Z,3.00
2019-05-03T16:58:16.481Z,2.33
2019-05-03T17:00:46.438Z,2.60
2019-05-03T17:03:20.137Z,3.00
2019-05-03T17:06:12.300Z,3.27
2019-05-03T17:09:01.678Z,3.07
2019-05-03T17:11:34.703Z,2.57
2019-05-03T17:14:05.389Z,3.97
2019-05-03T17:16:35.765Z,2.87
2019-05-03T17:19:06.293Z,3.00
2019-05-03T17:21:36.647Z,3.30
2019-05-03T17:24:07.065Z,3.40
2019-05-03T17:26:37.433Z,2.77
2019-05-03T17:29:07.791Z,2.60
2019-05-03T17:31:38.213Z,2.97
2019-05-03T17:34:08.517Z,2.73
2019-05-03T17:36:39.860Z,2.77
2019-05-03T17:39:15.077Z,2.83
2019-05-03T17:41:54.690Z,3.47
2019-05-03T17:44:29.293Z,2.80
2019-05-03T17:46:59.693Z,3.17
2019-05-03T17:49:30.025Z,2.97
2019-05-03T17:52:22.646Z,2.83
2019-05-03T17:55:12.149Z,2.70
2019-05-03T17:58:07.501Z,3.33
2019-05-03T18:00:56.286Z,4.10
2019-05-03T18:03:29.269Z,2.80
2019-05-03T18:06:05.285Z,2.90
2019-05-03T18:08:55.088Z,2.70
2019-05-03T18:11:34.707Z,3.10
2019-05-03T18:14:05.594Z,2.67
2019-05-03T18:16:36.232Z,3.63
2019-05-03T18:19:06.630Z,5.53
2019-05-03T18:21:37.069Z,3.63
2019-05-03T18:24:07.394Z,3.07
2019-05-03T18:26:37.678Z,3.03
2019-05-03T18:29:08.115Z,3.20
2019-05-03T18:31:38.582Z,3.23
2019-05-03T18:34:19.085Z,3.47
2019-05-03T18:36:40.971Z,3.23
2019-05-03T18:39:11.502Z,3.37
2019-05-03T18:41:41.863Z,3.30
2019-05-03T18:44:23.986Z,3.27
2019-05-03T18:46:59.851Z,2.90
2019-05-03T18:49:31.499Z,3.10
2019-05-03T18:52:04.352Z,2.73
2019-05-03T18:54:35.112Z,3.23
2019-05-03T18:57:05.560Z,3.50
2019-05-03T18:59:35.999Z,3.63
2019-05-03T19:02:06.503Z,3.33
2019-05-03T19:04:55.882Z,2.63
2019-05-03T19:07:49.174Z,2.60
2019-05-03T19:10:38.758Z,3.00
2019-05-03T19:13:15.059Z,2.97
2019-05-03T19:15:45.584Z,2.67
2019-05-03T19:18:36.002Z,3.30
2019-05-03T19:21:06.350Z,2.80
2019-05-03T19:23:36.826Z,2.60
2019-05-03T19:26:07.247Z,2.73
2019-05-03T19:28:37.627Z,3.20
2019-05-03T19:31:08.242Z,2.70
2019-05-03T19:33:38.714Z,3.20
2019-05-03T19:36:09.151Z,2.73
2019-05-03T19:38:39.603Z,3.73
2019-05-03T19:41:09.947Z,3.43
2019-05-03T19:43:40.364Z,3.50
2019-05-03T19:46:11.715Z,3.00
2019-05-03T19:48:42.033Z,3.17
2019-05-03T19:51:12.321Z,3.50
2019-05-03T19:53:49.967Z,3.17
2019-05-03T19:56:21.431Z,3.47
2019-05-03T19:58:55.666Z,3.30
2019-05-03T20:01:36.527Z,3.47
2019-05-03T20:04:18.788Z,3.40
2019-05-03T20:06:58.515Z,3.17
2019-05-03T20:09:29.260Z,3.70
2019-05-03T20:11:59.667Z,4.00
2019-05-03T20:14:29.980Z,3.37
2019-05-03T20:17:00.391Z,4.33
2019-05-03T20:19:30.939Z,4.30
2019-05-03T20:22:01.308Z,3.73
2019-05-03T20:24:31.615Z,3.93
2019-05-03T20:27:02.038Z,4.00
2019-05-03T20:29:34.390Z,4.13
2019-05-03T20:32:05.848Z,4.10
2019-05-03T20:34:36.669Z,4.03
2019-05-03T20:37:07.139Z,4.40
2019-05-03T20:39:37.435Z,4.50
2019-05-03T20:42:07.952Z,4.40
2019-05-03T20:45:05.229Z,4.53
2019-05-03T20:47:45.360Z,4.47
2019-05-03T20:50:15.790Z,5.80
2019-05-03T20:52:47.318Z,5.37
2019-05-03T20:55:17.783Z,4.97
2019-05-03T20:57:48.220Z,4.80
2019-05-03T21:00:22.348Z,3.70
2019-05-03T21:02:56.617Z,3.93
2019-05-03T21:05:30.950Z,4.20
2019-05-03T21:07:56.803Z,5.10
2019-05-03T21:10:27.161Z,4.77
2019-05-03T21:12:57.431Z,5.13
2019-05-03T21:15:37.120Z,5.30
2019-05-03T21:18:15.205Z,5.13
2019-05-03T21:20:50.282Z,5.80
2019-05-03T21:23:21.751Z,5.33
2019-05-03T21:26:12.596Z,5.10
2019-05-03T21:28:36.219Z,5.40
2019-05-03T21:31:06.747Z,5.30
2019-05-03T21:33:37.044Z,5.57
2019-05-03T21:36:07.443Z,5.60
2019-05-03T21:38:37.743Z,5.70
2019-05-03T21:41:08.072Z,5.90
2019-05-03T21:43:38.500Z,5.73
2019-05-03T21:46:25.585Z,5.30
2019-05-03T21:49:00.219Z,5.83
2019-05-03T21:51:30.551Z,5.97
2019-05-03T21:54:01.380Z,5.50
2019-05-03T21:56:31.744Z,5.30
2019-05-03T21:59:02.031Z,5.40
2019-05-03T22:01:34.945Z,5.40
2019-05-03T22:04:05.095Z,4.70
2019-05-03T22:06:35.432Z,4.97
2019-05-03T22:09:07.456Z,4.90
2019-05-03T22:11:39.307Z,4.73
2019-05-03T22:14:15.271Z,4.70
2019-05-03T22:17:19.807Z,4.13
2019-05-03T22:19:54.314Z,5.03
2019-05-03T22:22:36.734Z,5.07
2019-05-03T22:25:07.992Z,4.87
2019-05-03T22:27:42.858Z,4.70
2019-05-03T22:30:26.815Z,4.20
2019-05-03T22:32:56.564Z,4.90
2019-05-03T22:35:26.839Z,4.03
2019-05-03T22:37:57.196Z,4.07
2019-05-03T22:40:27.488Z,4.63
2019-05-03T22:42:57.777Z,4.23
2019-05-03T22:45:28.187Z,3.53
2019-05-03T22:47:58.476Z,3.40
2019-05-03T22:50:28.732Z,4.23
2019-05-03T22:52:59.096Z,4.10
2019-05-03T22:55:29.483Z,4.53
2019-05-03T22:57:59.980Z,4.57
2019-05-03T23:00:31.053Z,4.77
2019-05-03T23:03:01.532Z,3.80
2019-05-03T23:05:31.892Z,4.40
2019-05-03T23:08:02.172Z,3.90
2019-05-03T23:10:34.718Z,3.93
2019-05-03T23:13:05.062Z,4.10
2019-05-03T23:15:35.470Z,3.20
2019-05-03T23:18:05.838Z,3.50
2019-05-03T23:20:42.600Z,3.30
2019-05-03T23:23:31.907Z,3.40
2019-05-03T23:26:04.415Z,2.83
2019-05-03T23:28:35.639Z,3.13
2019-05-03T23:31:06.207Z,3.17
2019-05-03T23:33:36.479Z,3.20
2019-05-03T23:36:06.951Z,2.83
2019-05-03T23:38:37.364Z,2.97
2019-05-03T23:41:07.728Z,3.10
2019-05-03T23:43:38.008Z,2.40
2019-05-03T23:46:08.895Z,2.50
2019-05-03T23:48:39.316Z,3.07
2019-05-03T23:51:12.188Z,2.70
2019-05-03T23:53:44.591Z,2.60
2019-05-03T23:56:19.348Z,2.20
2019-05-03T23:58:49.708Z,2.57
